Maracaibo, Venezuela
Current Conditions -  °F | °C
As of 9:00 AM on Thursday 30 Oct 2014 (Local Time) from SKRH Reporting Station
Scattered Clouds Scattered Clouds  
Wind Chill: 82°   Ceiling: Unl
Heat Index: 91°   Visibility: 6mi
Dew Point: 77°   Wind: 9mph
Humidity: 84%   Direction: 80°E
Pressure: 29.8"   Gusts: NA
Location:  10.73°N, 71.66°W
Report Text: SKRH 301300Z 08008KT 9999 SCT020 SCT0300 28/25 A2980
Loading
Personal Weather Stations






























Interactive Weather Map
Tropical Storm Tracking
New forecast layout! Learn more

10-Day Weather Forecast

Advertisements
Track Severe Weather on mobile